Time;durP1;ratioP1;P1;durP2;ratioP2;P2;SDS_P1;SDS_P2;PMS_P1;PMS_P2;Temp;Humidity;BMP_temperature;BMP_pressure;BME280_temperature;BME280_humidity;BME280_pressure;Samples;Min_cycle;Max_cycle;Signal;HPM_P1;HPM_P2
2021/06/07 00:00:46;;;;;;;;;;;;;;;17.15;100.00;100955.75;5033879;28;19924;-68
2021/06/07 00:03:30;;;;;;;;;;;;;;;17.16;100.00;100946.66;5019142;28;20283;-68
2021/06/07 00:06:14;;;;;;;;;;;;;;;17.16;100.00;100944.81;5018835;28;19919;-67
2021/06/07 00:08:58;;;;;;;;;;;;;;;17.15;100.00;100947.66;5019083;28;19920;-68
2021/06/07 00:11:44;;;;;;;;;;;;;;;17.13;100.00;100942.47;5019010;28;20294;-68
2021/06/07 00:14:29;;;;;;;;;;;;;;;17.10;100.00;100950.03;5004979;28;19919;-68
2021/06/07 00:17:15;;;;;;;;;;;;;;;17.16;100.00;100952.88;5018967;28;19920;-65
2021/06/07 00:20:00;;;;;;;;;;;;;;;17.15;100.00;100951.22;5019368;28;19920;-68
2021/06/07 00:22:43;;;;;;;;;;;;;;;17.15;100.00;100945.81;5018895;28;19923;-68
2021/06/07 00:25:27;;;;;;;;;;;;;;;17.15;100.00;100943.13;5018617;28;19927;-67
2021/06/07 00:28:12;;;;;;;;;;;;;;;17.15;100.00;100948.50;5018837;28;19919;-68
2021/06/07 00:30:56;;;;;;;;;;;;;;;17.13;100.00;100945.16;5033251;28;20417;-67
2021/06/07 00:33:40;;;;;;;;;;;;;;;17.15;100.00;100944.97;5018497;28;19919;-68
2021/06/07 00:36:25;;;;;;;;;;;;;;;17.14;100.00;100943.28;5033473;28;20006;-68
2021/06/07 00:39:11;;;;;;;;;;;;;;;17.13;100.00;100939.75;5033639;28;19963;-67
2021/06/07 00:41:54;;;;;;;;;;;;;;;17.13;100.00;100939.75;5018765;28;19982;-67
2021/06/07 00:44:40;;;;;;;;;;;;;;;17.11;100.00;100940.94;5004881;28;19919;-67
2021/06/07 00:47:24;;;;;;;;;;;;;;;17.12;100.00;100938.09;5018721;28;19928;-68
2021/06/07 00:50:11;;;;;;;;;;;;;;;17.13;100.00;100934.38;5018266;28;19919;-67
2021/06/07 00:53:02;;;;;;;;;;;;;;;17.11;100.00;100936.38;5018986;28;19920;-67
2021/06/07 00:55:48;;;;;;;;;;;;;;;17.24;100.00;100933.16;5009641;28;20020;-68
2021/06/07 00:58:35;;;;;;;;;;;;;;;17.24;100.00;100942.09;5023107;28;19919;-67
2021/06/07 01:01:20;;;;;;;;;;;;;;;17.21;100.00;100930.81;5022331;28;20052;-68
2021/06/07 01:04:04;;;;;;;;;;;;;;;17.18;100.00;100937.38;5022456;28;19920;-67
2021/06/07 01:06:47;;;;;;;;;;;;;;;17.17;100.00;100933.00;5022051;28;19982;-68
2021/06/07 01:09:31;;;;;;;;;;;;;;;17.18;100.00;100932.00;5037190;28;19920;-68
2021/06/07 01:12:15;;;;;;;;;;;;;;;17.15;100.00;100937.75;5008085;28;19923;-68
2021/06/07 01:14:59;;;;;;;;;;;;;;;17.16;100.00;100928.63;5037058;28;19939;-68
2021/06/07 01:17:43;;;;;;;;;;;;;;;17.13;100.00;100929.00;5008309;28;19924;-65
2021/06/07 01:20:27;;;;;;;;;;;;;;;17.12;100.00;100927.31;5022080;28;19986;-67
2021/06/07 01:23:11;;;;;;;;;;;;;;;17.09;100.00;100927.63;5022002;28;19920;-67
2021/06/07 01:25:55;;;;;;;;;;;;;;;17.09;100.00;100924.09;5008526;28;20034;-67
2021/06/07 01:28:39;;;;;;;;;;;;;;;17.08;100.00;100917.88;5036968;28;19920;-68
2021/06/07 01:31:23;;;;;;;;;;;;;;;17.07;100.00;100921.56;5021546;28;19924;-65
2021/06/07 01:34:07;;;;;;;;;;;;;;;17.05;100.00;100926.28;5008333;28;19939;-68
2021/06/07 01:36:51;;;;;;;;;;;;;;;17.02;100.00;100921.25;5008004;28;20023;-68
2021/06/07 01:39:35;;;;;;;;;;;;;;;17.01;100.00;100916.84;5007883;28;19919;-68
2021/06/07 01:42:19;;;;;;;;;;;;;;;17.01;100.00;100914.16;5007596;28;19936;-68
2021/06/07 01:45:06;;;;;;;;;;;;;;;17.01;100.00;100913.34;5021684;28;19919;-67
2021/06/07 01:47:50;;;;;;;;;;;;;;;17.00;100.00;100912.47;5036602;28;19920;-67
2021/06/07 01:50:34;;;;;;;;;;;;;;;16.99;100.00;100910.81;5036108;28;20409;-67
2021/06/07 01:53:19;;;;;;;;;;;;;;;16.98;100.00;100914.50;5036487;28;19967;-67
2021/06/07 01:56:04;;;;;;;;;;;;;;;16.98;100.00;100914.50;5021501;28;19920;-67
2021/06/07 01:58:48;;;;;;;;;;;;;;;16.95;100.00;100914.84;5021366;28;19936;-64
2021/06/07 02:01:32;;;;;;;;;;;;;;;16.94;100.00;100907.78;5021380;28;19920;-67
2021/06/07 02:04:16;;;;;;;;;;;;;;;16.95;100.00;100904.09;5021565;28;20408;-67
2021/06/07 02:07:00;;;;;;;;;;;;;;;16.92;100.00;100909.81;5036237;28;20042;-67
2021/06/07 02:09:44;;;;;;;;;;;;;;;16.90;100.00;100905.59;5020862;28;19920;-67
2021/06/07 02:12:28;;;;;;;;;;;;;;;16.97;100.00;100907.44;5007057;28;19924;-67
2021/06/07 02:15:12;;;;;;;;;;;;;;;16.93;100.00;100899.88;5036111;28;19920;-67
2021/06/07 02:17:59;;;;;;;;;;;;;;;16.97;100.00;100910.13;5021102;28;19920;-67
2021/06/07 02:20:43;;;;;;;;;;;;;;;16.96;100.00;100904.91;5035753;28;20016;-67
2021/06/07 02:23:26;;;;;;;;;;;;;;;16.96;100.00;100905.75;5020772;28;20336;-67
2021/06/07 02:26:11;;;;;;;;;;;;;;;17.05;100.00;100898.50;5020866;28;19920;-67
2021/06/07 02:29:02;;;;;;;;;;;;;;;17.09;100.00;100899.88;5007083;28;19966;-67
2021/06/07 02:31:46;;;;;;;;;;;;;;;17.13;100.00;100903.88;5020394;28;19928;-67
2021/06/07 02:34:30;;;;;;;;;;;;;;;17.18;100.00;100899.66;5035729;28;19979;-67
2021/06/07 02:37:13;;;;;;;;;;;;;;;17.19;100.00;100901.34;5035670;28;19967;-65
2021/06/07 02:39:57;;;;;;;;;;;;;;;17.24;100.00;100899.00;5006554;28;19971;-67
2021/06/07 02:42:42;;;;;;;;;;;;;;;17.26;100.00;100896.09;5007069;28;19920;-67
2021/06/07 02:45:27;;;;;;;;;;;;;;;17.27;100.00;100895.94;5020627;28;19920;-66
2021/06/07 02:48:11;;;;;;;;;;;;;;;17.32;100.00;100898.94;5020515;28;19920;-67
2021/06/07 02:50:54;;;;;;;;;;;;;;;17.35;100.00;100895.97;5020079;28;19924;-66
2021/06/07 02:53:38;;;;;;;;;;;;;;;17.36;100.00;100900.34;5035339;28;19920;-66
2021/06/07 02:56:22;;;;;;;;;;;;;;;17.37;100.00;100904.72;5020346;28;19920;-66
2021/06/07 02:59:06;;;;;;;;;;;;;;;17.39;100.00;100905.38;5020002;28;20345;-66
2021/06/07 03:01:50;;;;;;;;;;;;;;;17.36;100.00;100904.88;5019968;28;19919;-68
2021/06/07 03:04:34;;;;;;;;;;;;;;;17.43;100.00;100904.03;5006387;28;19920;-68
2021/06/07 03:07:18;;;;;;;;;;;;;;;17.46;100.00;100909.06;5034983;28;19920;-67
2021/06/07 03:10:03;;;;;;;;;;;;;;;17.47;100.00;100899.97;5019936;28;19939;-67
2021/06/07 03:12:48;;;;;;;;;;;;;;;17.48;100.00;100896.25;5020051;28;19919;-68
2021/06/07 03:15:32;;;;;;;;;;;;;;;17.40;100.00;100907.06;5019958;28;20428;-68
2021/06/07 03:18:16;;;;;;;;;;;;;;;17.51;100.00;100904.00;5019408;28;20384;-68
2021/06/07 03:21:00;;;;;;;;;;;;;;;17.52;100.00;100908.34;5019609;28;19982;-68
2021/06/07 03:23:44;;;;;;;;;;;;;;;17.51;100.00;100898.59;5019820;28;20031;-68
2021/06/07 03:26:28;;;;;;;;;;;;;;;17.50;100.00;100905.00;5019877;28;19998;-67
2021/06/07 03:29:12;;;;;;;;;;;;;;;17.52;100.00;100900.28;5005770;28;19924;-68
2021/06/07 03:31:56;;;;;;;;;;;;;;;17.55;100.00;100902.66;5034595;28;20023;-68
2021/06/07 03:34:40;;;;;;;;;;;;;;;17.56;100.00;100898.94;5019326;28;19983;-68
2021/06/07 03:37:24;;;;;;;;;;;;;;;17.50;100.00;100898.78;5057620;22;19970;-71
2021/06/07 03:40:27;;;;;;;;;;;;;;;17.53;100.00;100909.22;5054444;28;19966;-72
2021/06/07 03:43:11;;;;;;;;;;;;;;;17.51;100.00;100904.00;5054089;28;19924;-72
2021/06/07 03:45:55;;;;;;;;;;;;;;;17.51;100.00;100900.47;5025183;28;19919;-72
2021/06/07 03:48:39;;;;;;;;;;;;;;;17.51;100.00;100900.47;5024982;28;19935;-72
2021/06/07 03:51:22;;;;;;;;;;;;;;;17.54;100.00;100906.34;5024927;28;19923;-72
2021/06/07 03:54:07;;;;;;;;;;;;;;;17.56;100.00;100898.94;5038824;28;19935;-72
2021/06/07 03:56:50;;;;;;;;;;;;;;;17.56;100.00;100898.94;5053774;28;19923;-72
2021/06/07 03:59:34;;;;;;;;;;;;;;;17.54;100.00;100906.34;5038964;28;20004;-72
2021/06/07 04:02:20;;;;;;;;;;;;;;;17.57;100.00;100903.31;5054039;28;19938;-72
2021/06/07 04:05:04;;;;;;;;;;;;;;;17.57;100.00;100900.63;5038832;28;19959;-70
2021/06/07 04:07:48;;;;;;;;;;;;;;;17.65;100.00;100903.28;5038749;28;19920;-71
2021/06/07 04:10:32;;;;;;;;;;;;;;;17.66;100.00;100909.50;5039115;28;19943;-72
2021/06/07 04:13:16;;;;;;;;;;;;;;;17.61;100.00;100904.63;5038843;28;19920;-71
2021/06/07 04:16:00;;;;;;;;;;;;;;;17.59;100.00;100911.22;5038476;28;19919;-71
2021/06/07 04:18:44;;;;;;;;;;;;;;;17.60;100.00;100905.66;5024758;28;19924;-71
2021/06/07 04:21:28;;;;;;;;;;;;;;;17.63;100.00;100904.47;5054069;28;20408;-67
2021/06/07 04:24:11;;;;;;;;;;;;;;;17.58;100.00;100902.28;5038440;28;19971;-72
2021/06/07 04:26:56;;;;;;;;;;;;;;;17.62;100.00;100910.88;5038308;28;19920;-72
2021/06/07 04:29:40;;;;;;;;;;;;;;;17.59;100.00;100914.75;5037655;28;20427;-72
2021/06/07 04:32:24;;;;;;;;;;;;;;;17.57;100.00;100908.69;5038368;28;19923;-72
2021/06/07 04:35:09;;;;;;;;;;;;;;;17.59;100.00;100906.66;5038354;28;19935;-72
2021/06/07 04:37:54;;;;;;;;;;;;;;;17.59;100.00;100911.22;5038393;28;20265;-72
2021/06/07 04:40:38;;;;;;;;;;;;;;;17.59;100.00;100913.94;5038373;28;20005;-72
2021/06/07 04:43:22;;;;;;;;;;;;;;;17.63;100.00;100899.94;5024878;28;20281;-72
2021/06/07 04:46:06;;;;;;;;;;;;;;;17.64;100.00;100907.00;5053485;28;19958;-72
2021/06/07 04:48:50;;;;;;;;;;;;;;;17.58;100.00;100907.69;5038436;28;19966;-72
2021/06/07 04:51:33;;;;;;;;;;;;;;;17.59;100.00;100903.97;5024099;28;20428;-71
2021/06/07 04:54:17;;;;;;;;;;;;;;;17.61;100.00;100899.25;5038687;28;19958;-69
2021/06/07 04:57:01;;;;;;;;;;;;;;;17.62;100.00;100900.09;5038317;28;20007;-72
2021/06/07 04:59:45;;;;;;;;;;;;;;;17.60;100.00;100905.66;5038071;28;19935;-72
2021/06/07 05:02:29;;;;;;;;;;;;;;;17.68;100.00;100902.94;5038356;28;20403;-71
2021/06/07 05:05:13;;;;;;;;;;;;;;;17.68;100.00;100905.63;5053702;28;20005;-71
2021/06/07 05:07:58;;;;;;;;;;;;;;;17.68;100.00;100902.94;5038050;28;19920;-70
2021/06/07 05:10:42;;;;;;;;;;;;;;;17.71;100.00;100907.13;5038202;28;19924;-72
2021/06/07 05:13:26;;;;;;;;;;;;;;;17.70;100.00;100898.19;5037938;28;19919;-71
2021/06/07 05:16:10;;;;;;;;;;;;;;;17.70;100.00;100908.16;5038135;28;20404;-71
2021/06/07 05:18:54;;;;;;;;;;;;;;;17.72;100.00;100906.94;5052979;28;19966;-71
2021/06/07 05:21:38;;;;;;;;;;;;;;;17.70;100.00;100900.88;5052939;28;19919;-71
2021/06/07 05:24:22;;;;;;;;;;;;;;;17.67;100.00;100909.34;5023872;28;19990;-69
2021/06/07 05:27:06;;;;;;;;;;;;;;;17.72;100.00;100915.03;5053038;28;20073;-72
2021/06/07 05:29:50;;;;;;;;;;;;;;;17.70;100.00;100911.69;5037749;28;19919;-71
2021/06/07 05:32:34;;;;;;;;;;;;;;;17.71;100.00;100912.53;5052825;28;19974;-72
2021/06/07 05:35:18;;;;;;;;;;;;;;;17.68;100.00;100910.16;5038027;28;20376;-72
2021/06/07 05:38:03;;;;;;;;;;;;;;;17.71;100.00;100916.06;5037839;28;20375;-71
2021/06/07 05:40:48;;;;;;;;;;;;;;;17.73;100.00;100916.72;5025875;28;20332;-70
2021/06/07 05:43:32;;;;;;;;;;;;;;;17.80;100.00;100924.44;5041733;28;20372;-71
2021/06/07 05:46:16;;;;;;;;;;;;;;;17.75;100.00;100914.72;5056511;28;19920;-71
2021/06/07 05:49:00;;;;;;;;;;;;;;;17.76;100.00;100924.47;5040875;28;19961;-71
2021/06/07 05:51:44;;;;;;;;;;;;;;;17.78;100.00;100927.84;5040523;28;19942;-71
2021/06/07 05:54:28;;;;;;;;;;;;;;;17.79;100.00;100926.81;5026678;28;19919;-71
2021/06/07 05:57:12;;;;;;;;;;;;;;;17.78;100.00;100930.53;5027163;28;19919;-72
2021/06/07 05:59:56;;;;;;;;;;;;;;;17.75;100.00;100933.59;5041218;28;19963;-71
2021/06/07 06:02:41;;;;;;;;;;;;;;;17.74;100.00;100941.84;5040896;28;19963;-70
2021/06/07 06:05:25;;;;;;;;;;;;;;;17.74;100.00;100940.00;5056231;28;19979;-71
2021/06/07 06:08:09;;;;;;;;;;;;;;;17.71;100.00;100942.19;5041092;28;19919;-71
2021/06/07 06:10:53;;;;;;;;;;;;;;;17.74;100.00;100944.53;5040960;28;19940;-71
2021/06/07 06:13:37;;;;;;;;;;;;;;;17.73;100.00;100948.25;5041006;28;19962;-71
2021/06/07 06:16:22;;;;;;;;;;;;;;;17.77;100.00;100947.72;5040787;28;19924;-71
2021/06/07 06:19:07;;;;;;;;;;;;;;;17.76;100.00;100943.34;5040794;28;19966;-71
2021/06/07 06:21:51;;;;;;;;;;;;;;;17.82;100.00;100931.84;5026817;28;19923;-72
2021/06/07 06:24:35;;;;;;;;;;;;;;;17.83;100.00;100946.19;5055634;28;20495;-71
2021/06/07 06:27:19;;;;;;;;;;;;;;;17.91;100.00;100936.22;5040484;28;19920;-71
2021/06/07 06:30:06;;;;;;;;;;;;;;;17.95;100.00;100942.09;5026705;28;19958;-72
2021/06/07 06:32:52;;;;;;;;;;;;;;;18.04;100.00;100938.34;5040336;28;19965;-72
2021/06/07 06:35:36;;;;;;;;;;;;;;;17.93;100.00;100942.25;5040466;28;20293;-71
2021/06/07 06:38:19;;;;;;;;;;;;;;;18.03;100.00;100953.69;5040605;28;19919;-71
2021/06/07 06:41:04;;;;;;;;;;;;;;;18.06;100.00;100945.25;5040504;28;19920;-72
2021/06/07 06:43:48;;;;;;;;;;;;;;;18.03;100.00;100955.56;5040508;28;20415;-68
2021/06/07 06:46:31;;;;;;;;;;;;;;;18.10;100.00;100949.28;5039967;28;19962;-71
2021/06/07 06:49:15;;;;;;;;;;;;;;;18.02;100.00;100951.19;5026069;28;19919;-71
2021/06/07 06:51:59;;;;;;;;;;;;;;;18.06;100.00;100950.66;5024949;28;19924;-70
2021/06/07 06:54:43;;;;;;;;;;;;;;;18.23;100.00;100946.00;5040188;28;20384;-71
2021/06/07 06:57:27;;;;;;;;;;;;;;;18.36;100.00;100941.75;5054978;28;19919;-71
2021/06/07 07:00:11;;;;;;;;;;;;;;;18.42;100.00;100941.03;5040133;28;19923;-71
2021/06/07 07:02:56;;;;;;;;;;;;;;;18.51;100.00;100939.97;5039962;28;19919;-72
2021/06/07 07:05:40;;;;;;;;;;;;;;;18.52;100.00;100944.34;5040315;28;19958;-70
2021/06/07 07:08:24;;;;;;;;;;;;;;;18.54;100.00;100942.28;5026023;28;19919;-72
2021/06/07 07:11:10;;;;;;;;;;;;;;;18.62;100.00;100937.69;5039912;28;20082;-72
2021/06/07 07:13:54;;;;;;;;;;;;;;;18.74;100.00;100941.66;5039893;28;19920;-71
2021/06/07 07:16:38;;;;;;;;;;;;;;;18.73;100.00;100933.72;5039542;28;20011;-71
2021/06/07 07:19:22;;;;;;;;;;;;;;;18.80;99.88;100942.78;5039688;28;19919;-71
2021/06/07 07:22:06;;;;;;;;;;;;;;;18.87;99.71;100949.16;5039609;28;19958;-71
2021/06/07 07:24:50;;;;;;;;;;;;;;;18.89;99.63;100944.41;5039377;28;20010;-71
2021/06/07 07:27:36;;;;;;;;;;;;;;;18.84;99.84;100949.50;5054300;28;19918;-71
2021/06/07 07:30:21;;;;;;;;;;;;;;;18.85;100.00;100953.88;5039774;28;20114;-71
2021/06/07 07:33:05;;;;;;;;;;;;;;;18.87;100.00;100951.88;5039211;28;20373;-71
2021/06/07 07:35:48;;;;;;;;;;;;;;;18.83;99.39;100945.13;5054016;28;20285;-73
2021/06/07 07:38:32;;;;;;;;;;;;;;;18.90;98.72;100955.03;5025910;28;20272;-70
2021/06/07 07:41:16;;;;;;;;;;;;;;;19.04;98.53;100958.78;5039544;28;19918;-72
2021/06/07 07:44:00;;;;;;;;;;;;;;;19.08;97.81;100960.97;5025098;28;19934;-72
2021/06/07 07:46:44;;;;;;;;;;;;;;;19.14;96.40;100964.78;5039319;28;19919;-72
2021/06/07 07:49:28;;;;;;;;;;;;;;;19.10;96.94;100963.50;5039677;28;20282;-72
2021/06/07 07:52:13;;;;;;;;;;;;;;;19.22;96.65;100965.63;5039129;28;20285;-72
2021/06/07 07:54:57;;;;;;;;;;;;;;;19.19;96.53;100962.44;5038943;28;20003;-70
2021/06/07 07:57:41;;;;;;;;;;;;;;;19.07;97.50;100964.69;5024763;28;20293;-72
2021/06/07 08:00:26;;;;;;;;;;;;;;;19.03;97.34;100963.38;5039213;28;19939;-71
2021/06/07 08:03:10;;;;;;;;;;;;;;;19.02;98.11;100966.25;5024635;28;19966;-72
2021/06/07 08:05:54;;;;;;;;;;;;;;;19.04;97.49;100966.91;5025135;28;19947;-72
2021/06/07 08:08:38;;;;;;;;;;;;;;;18.95;97.63;100966.16;5024946;28;20393;-71
2021/06/07 08:11:22;;;;;;;;;;;;;;;18.91;98.03;100963.97;5024804;28;19928;-72
2021/06/07 08:14:06;;;;;;;;;;;;;;;18.81;98.47;100964.22;5038823;28;19963;-71
2021/06/07 08:16:50;;;;;;;;;;;;;;;18.90;99.07;100963.13;5038431;28;19962;-71
2021/06/07 08:19:34;;;;;;;;;;;;;;;18.95;98.00;100959.88;5024521;28;19962;-72
2021/06/07 08:22:18;;;;;;;;;;;;;;;19.04;98.32;100962.34;5038932;28;19919;-72
2021/06/07 08:25:02;;;;;;;;;;;;;;;19.18;97.29;100969.69;5024627;28;19962;-72
2021/06/07 08:27:46;;;;;;;;;;;;;;;19.14;97.44;100965.66;5024455;28;19920;-72
2021/06/07 08:30:32;;;;;;;;;;;;;;;19.16;96.06;100962.75;5038556;28;19920;-72
2021/06/07 08:33:16;;;;;;;;;;;;;;;18.95;97.70;100963.44;5053680;28;19920;-71
2021/06/07 08:36:01;;;;;;;;;;;;;;;18.83;99.35;100964.03;5053460;28;19946;-72
2021/06/07 08:38:45;;;;;;;;;;;;;;;18.93;98.26;100957.38;5038514;28;19963;-72
2021/06/07 08:41:29;;;;;;;;;;;;;;;18.89;98.96;100958.75;5038414;28;19920;-70
2021/06/07 08:44:13;;;;;;;;;;;;;;;18.96;98.06;100950.75;5024833;28;19919;-71
2021/06/07 08:46:57;;;;;;;;;;;;;;;19.18;97.37;100955.34;5024847;28;19935;-71
2021/06/07 08:49:41;;;;;;;;;;;;;;;19.05;98.28;100957.78;5038560;28;19963;-71
2021/06/07 08:52:24;;;;;;;;;;;;;;;19.00;98.35;100962.91;5038393;28;20285;-72
2021/06/07 08:55:09;;;;;;;;;;;;;;;19.11;97.27;100965.16;5038335;28;19986;-71
2021/06/07 08:57:55;;;;;;;;;;;;;;;19.22;97.47;100967.47;5038387;28;19920;-71
2021/06/07 09:00:40;;;;;;;;;;;;;;;19.08;98.04;100971.75;5038433;28;19920;-71
2021/06/07 09:03:27;;;;;;;;;;;;;;;19.10;97.53;100972.41;5024138;28;19959;-71
2021/06/07 09:06:13;;;;;;;;;;;;;;;19.04;98.88;100980.41;5024079;28;19924;-70
2021/06/07 09:09:04;;;;;;;;;;;;;;;18.99;98.97;100972.03;5038404;28;19935;-71
2021/06/07 09:12:01;;;;;;;;;;;;;;;19.11;98.67;100981.38;5053169;28;19923;-70
2021/06/07 09:14:50;;;;;;;;;;;;;;;18.98;99.80;100975.75;5039361;28;20014;-71
2021/06/07 09:17:33;;;;;;;;;;;;;;;18.99;99.58;100974.72;5028190;28;19967;-71
2021/06/07 09:20:19;;;;;;;;;;;;;;;18.92;99.78;100968.34;5042004;28;19947;-70
2021/06/07 09:23:08;;;;;;;;;;;;;;;18.88;99.51;100969.75;5056810;28;19919;-70
2021/06/07 09:25:52;;;;;;;;;;;;;;;18.98;98.69;100981.16;5027919;28;19983;-70
2021/06/07 09:28:38;;;;;;;;;;;;;;;18.97;99.54;100968.69;5056897;28;20042;-71
2021/06/07 09:31:26;;;;;;;;;;;;;;;19.00;99.67;100973.72;5041933;28;19928;-71
2021/06/07 09:34:10;;;;;;;;;;;;;;;19.06;99.83;100973.81;5056825;28;19935;-71
2021/06/07 09:36:54;;;;;;;;;;;;;;;19.20;99.30;100972.22;5074684;22;20434;-72
2021/06/07 09:39:39;;;;;;;;;;;;;;;19.06;98.80;100978.38;5067418;28;19962;-71
2021/06/07 09:42:24;;;;;;;;;;;;;;;19.22;98.47;100976.44;5081014;28;19961;-71
2021/06/07 09:45:08;;;;;;;;;;;;;;;19.22;97.84;100980.97;5067179;28;20019;-71
2021/06/07 09:47:51;;;;;;;;;;;;;;;19.29;98.26;100984.66;5081056;28;19961;-72
2021/06/07 09:50:35;;;;;;;;;;;;;;;19.30;98.34;100980.91;5067119;28;19935;-72
2021/06/07 09:53:39;;;;;;;;;;;;;;;19.35;97.24;100976.63;5067249;28;19934;-71
2021/06/07 09:56:23;;;;;;;;;;;;;;;19.30;98.74;100987.16;5091375;28;20046;-71
2021/06/07 09:59:22;;;;;;;;;;;;;;;19.20;98.86;100985.72;5067437;28;19919;-71
2021/06/07 10:02:19;;;;;;;;;;;;;;;19.20;100.00;100993.84;5081231;28;20380;-71
2021/06/07 10:05:04;;;;;;;;;;;;;;;19.25;100.00;100983.31;5066728;28;19919;-71
2021/06/07 10:07:54;;;;;;;;;;;;;;;19.26;100.00;100990.38;5066855;28;19969;-71
2021/06/07 10:10:39;;;;;;;;;;;;;;;19.14;100.00;100981.00;5080956;28;19927;-72
2021/06/07 10:13:23;;;;;;;;;;;;;;;19.19;100.00;100989.47;5066662;28;19965;-71
2021/06/07 10:16:08;;;;;;;;;;;;;;;19.22;100.00;100989.09;5080719;28;19958;-70
2021/06/07 10:18:52;;;;;;;;;;;;;;;19.27;100.00;100987.53;5080931;28;19918;-71
2021/06/07 10:21:36;;;;;;;;;;;;;;;19.34;100.00;100985.78;5080557;28;19918;-71
2021/06/07 10:24:19;;;;;;;;;;;;;;;19.47;100.00;100983.28;5080862;28;19919;-70
2021/06/07 10:27:03;;;;;;;;;;;;;;;19.47;100.00;100991.38;5080266;28;20334;-71
2021/06/07 10:29:49;;;;;;;;;;;;;;;19.35;100.00;100987.44;5095946;28;20371;-71
2021/06/07 10:32:33;;;;;;;;;;;;;;;19.42;100.00;100990.25;5080644;28;19982;-70
2021/06/07 10:35:27;;;;;;;;;;;;;;;19.35;99.81;100989.31;5080318;28;20012;-71
2021/06/07 10:38:11;;;;;;;;;;;;;;;19.36;100.00;100988.28;5079992;28;20448;-71
2021/06/07 10:41:25;;;;;;;;;;;;;;;19.35;100.00;100992.00;5080664;28;19957;-71
2021/06/07 10:44:09;;;;;;;;;;;;;;;19.49;100.00;100988.50;5086661;28;19918;-72
2021/06/07 10:47:01;;;;;;;;;;;;;;;19.69;97.80;100986.94;5080609;28;19962;-71
2021/06/07 10:49:47;;;;;;;;;;;;;;;19.68;97.22;100987.97;5080321;28;19919;-71
2021/06/07 10:52:40;;;;;;;;;;;;;;;19.72;97.92;100986.56;5065713;28;20300;-72
2021/06/07 10:55:33;;;;;;;;;;;;;;;19.58;96.69;100995.53;5095199;28;20379;-71
2021/06/07 10:58:21;;;;;;;;;;;;;;;19.68;97.52;100990.69;5095552;28;19919;-71
2021/06/07 11:01:05;;;;;;;;;;;;;;;19.50;96.26;100992.88;5080124;28;19962;-71
2021/06/07 11:03:56;;;;;;;;;;;;;;;19.35;97.12;100992.84;5065700;28;19918;-71
2021/06/07 11:06:52;;;;;;;;;;;;;;;19.40;98.28;100986.91;5079788;28;20418;-72
2021/06/07 11:09:42;;;;;;;;;;;;;;;19.49;97.99;100996.63;5079610;28;19918;-71
2021/06/07 11:12:30;;;;;;;;;;;;;;;19.56;97.51;100993.00;5079824;28;19934;-71
2021/06/07 11:15:45;;;;;;;;;;;;;;;19.60;96.75;100988.88;5094920;28;19919;-71
2021/06/07 11:18:32;;;;;;;;;;;;;;;19.80;95.88;100991.91;5094731;28;19961;-70
2021/06/07 11:21:33;;;;;;;;;;;;;;;19.89;95.84;100993.50;5094708;28;20327;-71
2021/06/07 11:24:33;;;;;;;;;;;;;;;19.83;94.68;100991.50;5079409;28;19919;-71
2021/06/07 11:27:44;;;;;;;;;;;;;;;19.69;95.42;100989.66;5079448;28;19966;-71
2021/06/07 11:30:28;;;;;;;;;;;;;;;19.65;97.31;100985.63;5079319;28;19965;-71
2021/06/07 11:33:12;;;;;;;;;;;;;;;19.61;97.62;100987.03;5065182;28;19919;-71
2021/06/07 11:35:56;;;;;;;;;;;;;;;19.61;97.07;100981.63;5079074;28;19919;-71
2021/06/07 11:38:44;;;;;;;;;;;;;;;19.51;97.54;100986.44;5078947;28;19953;-70
2021/06/07 11:41:37;;;;;;;;;;;;;;;19.63;97.65;100976.84;5079435;28;19927;-71
2021/06/07 11:44:40;;;;;;;;;;;;;;;19.57;97.13;100989.25;5079256;28;20307;-71
2021/06/07 11:47:36;;;;;;;;;;;;;;;19.68;97.60;100987.97;5094320;28;19978;-71
2021/06/07 11:50:25;;;;;;;;;;;;;;;19.61;97.62;100979.75;5094197;28;20004;-71
2021/06/07 11:53:14;;;;;;;;;;;;;;;19.45;97.82;100989.88;5079641;28;20012;-71
2021/06/07 11:55:58;;;;;;;;;;;;;;;19.49;98.03;100988.50;5065082;28;20004;-71
2021/06/07 11:58:47;;;;;;;;;;;;;;;19.47;98.98;100982.41;5079083;28;19919;-71
2021/06/07 12:01:33;;;;;;;;;;;;;;;19.45;98.93;100982.63;5078679;28;20315;-71
2021/06/07 12:04:23;;;;;;;;;;;;;;;19.47;99.70;100979.72;5093904;28;19937;-71
2021/06/07 12:07:08;;;;;;;;;;;;;;;19.40;99.89;100981.50;5094373;28;19919;-71
2021/06/07 12:09:53;;;;;;;;;;;;;;;19.28;100.00;100983.78;5064490;28;19919;-71
2021/06/07 12:12:37;;;;;;;;;;;;;;;19.34;100.00;100982.22;5093777;28;19923;-71
2021/06/07 12:15:21;;;;;;;;;;;;;;;19.39;100.00;100983.34;5094037;28;19965;-71
2021/06/07 12:18:05;;;;;;;;;;;;;;;19.37;100.00;100981.88;5064333;28;19927;-72
2021/06/07 12:20:49;;;;;;;;;;;;;;;19.38;99.85;100975.44;5078700;28;19970;-70
2021/06/07 12:23:37;;;;;;;;;;;;;;;19.41;100.00;100975.06;5078408;28;20017;-72
2021/06/07 12:29:35;;;;;;;;;;;;;;;19.46;98.88;100976.19;5081321;28;20018;-72
2021/06/07 12:32:21;;;;;;;;;;;;;;;19.52;98.82;100985.44;5078659;28;19923;-71
2021/06/07 12:35:13;;;;;;;;;;;;;;;19.59;99.90;100980.97;5078394;28;19979;-71
2021/06/07 12:38:09;;;;;;;;;;;;;;;19.63;98.56;100987.69;5078011;28;20006;-71
2021/06/07 12:40:54;;;;;;;;;;;;;;;19.69;98.91;100974.25;5093814;28;19934;-71
2021/06/07 12:43:42;;;;;;;;;;;;;;;19.56;98.38;100975.91;5064233;28;19919;-71
2021/06/07 12:46:26;;;;;;;;;;;;;;;19.68;97.56;100975.28;5078457;28;19919;-72
2021/06/07 12:49:20;;;;;;;;;;;;;;;19.69;97.27;100970.72;5078203;28;19915;-71
2021/06/07 12:52:04;;;;;;;;;;;;;;;19.81;96.72;100977.34;5068257;28;20010;-71
2021/06/07 12:54:48;;;;;;;;;;;;;;;19.82;96.95;100971.72;5097829;28;19946;-70
2021/06/07 12:57:33;;;;;;;;;;;;;;;19.88;96.94;100976.41;5081927;28;19919;-71
2021/06/07 13:00:23;;;;;;;;;;;;;;;19.90;96.26;100979.75;5082572;28;20003;-71
2021/06/07 13:03:23;;;;;;;;;;;;;;;20.12;94.11;100968.00;5097513;28;19919;-71
2021/06/07 13:06:07;;;;;;;;;;;;;;;20.38;91.58;100972.91;5097559;28;19958;-71
2021/06/07 13:09:03;;;;;;;;;;;;;;;20.50;90.90;100966.00;5097905;28;19958;-72
2021/06/07 13:11:51;;;;;;;;;;;;;;;20.54;91.20;100964.56;5081936;28;19969;-71
2021/06/07 13:14:35;;;;;;;;;;;;;;;20.73;90.77;100963.94;5068509;28;20418;-71
2021/06/07 13:17:20;;;;;;;;;;;;;;;20.73;91.60;100972.91;5082280;28;19918;-70
2021/06/07 13:20:16;;;;;;;;;;;;;;;20.42;91.54;100968.81;5082039;28;19934;-72
2021/06/07 13:23:00;;;;;;;;;;;;;;;20.29;92.91;100980.31;5067798;28;20356;-71
2021/06/07 13:25:44;;;;;;;;;;;;;;;20.32;92.92;100973.69;5081599;28;19977;-71
2021/06/07 13:28:28;;;;;;;;;;;;;;;20.24;93.41;100971.09;5081467;28;19990;-69
2021/06/07 13:31:12;;;;;;;;;;;;;;;20.34;93.00;100971.63;5096803;28;19929;-71
2021/06/07 13:33:56;;;;;;;;;;;;;;;20.28;93.63;100961.53;5067571;28;19935;-72
2021/06/07 13:36:40;;;;;;;;;;;;;;;20.31;93.75;100972.00;5081437;28;20049;-71
2021/06/07 13:39:27;;;;;;;;;;;;;;;20.37;93.05;100963.97;5096541;28;19919;-71
2021/06/07 13:42:11;;;;;;;;;;;;;;;20.49;93.13;100964.28;5096607;28;20334;-71
2021/06/07 13:44:59;;;;;;;;;;;;;;;20.84;90.32;100958.00;5081422;28;19965;-71
2021/06/07 13:47:50;;;;;;;;;;;;;;;20.99;90.53;100956.09;5096305;28;19923;-72
2021/06/07 13:50:44;;;;;;;;;;;;;;;21.10;88.98;100958.28;5067112;28;20437;-71
2021/06/07 13:53:38;;;;;;;;;;;;;;;20.99;87.20;100950.66;5081007;28;19926;-71
2021/06/07 13:56:27;;;;;;;;;;;;;;;21.03;87.47;100955.50;5096515;28;19919;-71
2021/06/07 13:59:19;;;;;;;;;;;;;;;21.27;87.27;100944.25;5081167;28;19919;-71
2021/06/07 14:02:03;;;;;;;;;;;;;;;21.19;86.54;100947.94;5080370;28;19965;-71
2021/06/07 14:04:47;;;;;;;;;;;;;;;21.12;86.87;100957.06;5095999;28;19927;-71
2021/06/07 14:07:31;;;;;;;;;;;;;;;21.04;87.33;100951.75;5080801;28;19937;-71